createdAt,value
2023-08-17T00:00:39.014Z,16.16
2023-08-17T00:03:05.745Z,16.14
2023-08-17T00:05:34.190Z,16.13
2023-08-17T00:08:02.132Z,16.10
2023-08-17T00:10:31.897Z,16.13
2023-08-17T00:12:59.060Z,16.14
2023-08-17T00:15:25.893Z,16.02
2023-08-17T00:17:52.615Z,16.01
2023-08-17T00:20:19.416Z,16.03
2023-08-17T00:22:46.125Z,15.98
2023-08-17T00:25:12.859Z,16.02
2023-08-17T00:27:39.527Z,16.02
2023-08-17T00:30:06.833Z,16.03
2023-08-17T00:32:33.512Z,16.01
2023-08-17T00:35:00.490Z,16.00
2023-08-17T00:37:29.098Z,16.07
2023-08-17T00:39:55.854Z,16.10
2023-08-17T00:42:22.575Z,16.17
2023-08-17T00:44:49.265Z,16.30
2023-08-17T00:47:15.958Z,16.34
2023-08-17T00:49:42.854Z,16.39
2023-08-17T00:52:09.781Z,16.39
2023-08-17T00:54:36.606Z,16.44
2023-08-17T00:57:07.531Z,16.41
2023-08-17T00:59:37.119Z,16.39
2023-08-17T01:02:04.581Z,16.40
2023-08-17T01:04:32.975Z,16.44
2023-08-17T01:06:59.705Z,16.45
2023-08-17T01:09:27.653Z,16.43
2023-08-17T01:12:01.225Z,16.48
2023-08-17T01:14:40.544Z,16.52
2023-08-17T01:17:15.991Z,16.52
2023-08-17T01:19:43.969Z,16.40
2023-08-17T01:22:12.421Z,16.33
2023-08-17T01:24:39.145Z,16.27
2023-08-17T01:27:05.856Z,16.13
2023-08-17T01:29:32.875Z,16.15
2023-08-17T01:32:08.657Z,16.22
2023-08-17T01:34:41.560Z,16.18
2023-08-17T01:37:09.030Z,16.20
2023-08-17T01:39:38.847Z,16.23
2023-08-17T01:42:06.230Z,16.26
2023-08-17T01:44:33.012Z,16.30
2023-08-17T01:46:59.718Z,16.34
2023-08-17T01:49:26.641Z,16.35
2023-08-17T01:51:53.351Z,16.33
2023-08-17T01:54:20.378Z,16.34
2023-08-17T01:56:47.208Z,16.31
2023-08-17T01:59:14.214Z,16.34
2023-08-17T02:01:41.366Z,16.37
2023-08-17T02:04:08.145Z,16.39
2023-08-17T02:06:34.869Z,16.39
2023-08-17T02:09:01.593Z,16.42
2023-08-17T02:11:28.405Z,16.43
2023-08-17T02:13:55.170Z,16.45
2023-08-17T02:16:21.942Z,16.48
2023-08-17T02:18:49.412Z,16.51
2023-08-17T02:21:16.085Z,16.48
2023-08-17T02:23:42.721Z,16.40
2023-08-17T02:26:09.573Z,16.38
2023-08-17T02:28:36.213Z,16.37
2023-08-17T02:31:03.003Z,16.32
2023-08-17T02:33:30.069Z,16.27
2023-08-17T02:35:56.910Z,16.22
2023-08-17T02:38:23.618Z,16.20
2023-08-17T02:40:51.221Z,16.16
2023-08-17T02:43:17.969Z,16.15
2023-08-17T02:45:44.791Z,16.17
2023-08-17T02:48:11.570Z,16.18
2023-08-17T02:50:38.907Z,16.16
2023-08-17T02:53:05.595Z,16.22
2023-08-17T02:55:32.415Z,16.17
2023-08-17T02:57:59.018Z,16.09
2023-08-17T03:00:25.737Z,16.04
2023-08-17T03:02:52.513Z,16.05
2023-08-17T03:05:20.002Z,16.03
2023-08-17T03:07:46.691Z,15.91
2023-08-17T03:10:14.354Z,15.89
2023-08-17T03:12:41.062Z,15.83
2023-08-17T03:15:08.111Z,15.83
2023-08-17T03:17:35.989Z,15.82
2023-08-17T03:20:06.029Z,15.76
2023-08-17T03:22:51.214Z,15.79
2023-08-17T03:25:19.992Z,15.75
2023-08-17T03:27:47.065Z,15.70
2023-08-17T03:30:14.811Z,15.62
2023-08-17T03:32:42.237Z,15.58
2023-08-17T03:35:09.405Z,15.62
2023-08-17T03:37:36.765Z,15.60
2023-08-17T03:40:04.033Z,15.52
2023-08-17T03:42:32.052Z,15.50
2023-08-17T03:44:58.825Z,15.51
2023-08-17T03:47:25.910Z,15.46
2023-08-17T03:49:53.479Z,15.48
2023-08-17T03:52:20.182Z,15.48
2023-08-17T03:54:48.514Z,15.41
2023-08-17T03:57:15.329Z,15.42
2023-08-17T03:59:42.504Z,15.39
2023-08-17T04:02:09.179Z,15.35
2023-08-17T04:04:36.438Z,15.43
2023-08-17T04:07:03.167Z,15.49
2023-08-17T04:09:29.895Z,15.53
2023-08-17T04:11:58.547Z,15.53
2023-08-17T04:14:25.300Z,15.47
2023-08-17T04:16:51.921Z,15.44
2023-08-17T04:19:19.482Z,15.42
2023-08-17T04:21:46.235Z,15.42
2023-08-17T04:24:12.861Z,15.41
2023-08-17T04:26:39.836Z,15.43
2023-08-17T04:29:07.098Z,15.45
2023-08-17T04:31:33.863Z,15.46
2023-08-17T04:34:02.937Z,15.50
2023-08-17T04:36:30.146Z,15.49
2023-08-17T04:38:57.110Z,15.40
2023-08-17T04:41:24.900Z,15.37
2023-08-17T04:43:52.854Z,15.35
2023-08-17T04:46:19.604Z,15.32
2023-08-17T04:48:46.391Z,15.27
2023-08-17T04:51:15.323Z,15.31
2023-08-17T04:53:43.820Z,15.32
2023-08-17T04:56:10.626Z,15.33
2023-08-17T04:58:39.018Z,15.36
2023-08-17T05:01:05.863Z,15.39
2023-08-17T05:03:34.308Z,15.45
2023-08-17T05:06:02.883Z,15.54
2023-08-17T05:08:29.556Z,15.61
2023-08-17T05:10:56.881Z,15.61
2023-08-17T05:13:25.738Z,15.70
2023-08-17T05:15:53.811Z,15.68
2023-08-17T05:18:22.440Z,15.69
2023-08-17T05:20:49.200Z,15.80
2023-08-17T05:23:15.882Z,15.92
2023-08-17T05:25:47.650Z,15.97
2023-08-17T05:28:15.181Z,16.03
2023-08-17T05:30:41.926Z,15.96
2023-08-17T05:33:08.778Z,15.97
2023-08-17T05:35:35.771Z,16.00
2023-08-17T05:38:02.917Z,16.01
2023-08-17T05:40:33.379Z,16.09
2023-08-17T05:42:59.974Z,16.17
2023-08-17T05:45:26.535Z,16.31
2023-08-17T05:47:53.750Z,16.40
2023-08-17T05:50:20.345Z,16.45
2023-08-17T05:52:47.094Z,16.57
2023-08-17T05:55:13.741Z,16.57
2023-08-17T05:57:40.520Z,16.61
2023-08-17T06:00:09.690Z,16.58
2023-08-17T06:02:39.825Z,16.70
2023-08-17T06:05:06.970Z,16.79
2023-08-17T06:07:33.595Z,16.95
2023-08-17T06:10:00.408Z,17.17
2023-08-17T06:12:27.039Z,17.34
2023-08-17T06:14:53.834Z,17.46
2023-08-17T06:17:20.525Z,17.64
2023-08-17T06:19:47.280Z,17.87
2023-08-17T06:22:13.925Z,17.97
2023-08-17T06:24:40.663Z,18.17
2023-08-17T06:27:07.323Z,18.40
2023-08-17T06:29:34.130Z,18.68
2023-08-17T06:32:00.882Z,18.97
2023-08-17T06:34:27.556Z,19.25
2023-08-17T06:37:02.860Z,19.50
2023-08-17T06:39:29.918Z,19.38
2023-08-17T06:41:56.549Z,19.14
2023-08-17T06:44:23.289Z,19.06
2023-08-17T06:46:49.913Z,19.12
2023-08-17T06:49:16.643Z,19.01
2023-08-17T06:51:43.348Z,19.09
2023-08-17T06:54:10.692Z,19.15
2023-08-17T06:56:37.373Z,19.30
2023-08-17T06:59:04.297Z,19.41
2023-08-17T07:01:31.283Z,19.59
2023-08-17T07:03:58.379Z,19.74
2023-08-17T07:06:25.792Z,19.71
2023-08-17T07:08:53.846Z,19.87
2023-08-17T07:11:20.712Z,20.13
2023-08-17T07:13:47.625Z,20.32
2023-08-17T07:16:15.238Z,20.50
2023-08-17T07:18:42.103Z,20.35
2023-08-17T07:21:08.810Z,20.34
2023-08-17T07:23:35.620Z,20.23
2023-08-17T07:26:02.372Z,20.09
2023-08-17T07:28:48.261Z,20.43
2023-08-17T07:31:15.097Z,20.78
2023-08-17T07:33:41.916Z,21.08
2023-08-17T07:36:08.697Z,21.17
2023-08-17T07:38:35.329Z,20.99
2023-08-17T07:41:02.013Z,21.02
2023-08-17T07:43:28.750Z,20.98
2023-08-17T07:45:56.365Z,21.02
2023-08-17T07:48:23.496Z,20.86
2023-08-17T07:50:53.836Z,20.92
2023-08-17T07:53:20.654Z,21.09
2023-08-17T07:55:47.895Z,21.25
2023-08-17T07:58:15.821Z,21.18
2023-08-17T08:00:42.469Z,21.09
2023-08-17T08:03:09.572Z,21.07
2023-08-17T08:05:36.435Z,21.18
2023-08-17T08:08:03.489Z,21.40
2023-08-17T08:10:30.151Z,21.31
2023-08-17T08:12:56.908Z,21.40
2023-08-17T08:15:23.610Z,21.60
2023-08-17T08:17:50.531Z,21.82
2023-08-17T08:20:17.245Z,21.95
2023-08-17T08:22:43.927Z,22.15
2023-08-17T08:25:11.279Z,22.38
2023-08-17T08:27:38.439Z,22.67
2023-08-17T08:30:06.402Z,22.89
2023-08-17T08:32:33.217Z,23.10
2023-08-17T08:34:59.970Z,23.24
2023-08-17T08:37:27.190Z,23.38
2023-08-17T08:39:55.405Z,23.36
2023-08-17T08:42:23.914Z,23.43
2023-08-17T08:44:51.674Z,23.35
2023-08-17T08:47:19.546Z,23.38
2023-08-17T08:49:54.961Z,23.48
2023-08-17T08:52:24.742Z,23.70
2023-08-17T08:54:52.276Z,23.74
2023-08-17T08:57:19.866Z,23.58
2023-08-17T08:59:47.252Z,23.76
2023-08-17T09:02:16.690Z,23.85
2023-08-17T09:04:47.151Z,23.93
2023-08-17T09:07:18.846Z,24.01
2023-08-17T09:09:46.025Z,24.08
2023-08-17T09:12:12.880Z,24.18
2023-08-17T09:14:42.089Z,24.41
2023-08-17T09:17:09.295Z,24.56
2023-08-17T09:19:36.064Z,24.65
2023-08-17T09:22:03.124Z,24.80
2023-08-17T09:24:37.575Z,24.78
2023-08-17T09:29:39.490Z,25.16
2023-08-17T09:32:07.779Z,25.27
2023-08-17T09:34:34.484Z,25.46
2023-08-17T09:37:05.478Z,25.70
2023-08-17T09:39:32.921Z,25.95
2023-08-17T09:42:00.885Z,26.21
2023-08-17T09:44:28.047Z,26.30
2023-08-17T09:46:57.934Z,26.45
2023-08-17T09:49:25.610Z,26.45
2023-08-17T09:51:55.021Z,26.60
2023-08-17T09:54:29.506Z,26.56
2023-08-17T09:56:56.653Z,26.79
2023-08-17T09:59:24.667Z,26.62
2023-08-17T10:04:24.033Z,26.57
2023-08-17T10:07:01.636Z,26.75
2023-08-17T10:09:33.049Z,27.23
2023-08-17T10:12:04.257Z,27.52
2023-08-17T10:14:36.233Z,27.27
2023-08-17T10:17:11.563Z,27.51
2023-08-17T10:19:53.195Z,27.87
2023-08-17T10:22:32.747Z,27.99
2023-08-17T10:25:00.554Z,27.72
2023-08-17T10:27:28.179Z,27.75
2023-08-17T10:29:55.357Z,27.82
2023-08-17T10:32:26.193Z,27.82
2023-08-17T10:34:53.445Z,27.27
2023-08-17T10:37:22.011Z,27.24
2023-08-17T10:39:49.575Z,27.48
2023-08-17T10:42:20.821Z,27.54
2023-08-17T10:44:49.362Z,27.62
2023-08-17T10:47:36.441Z,27.58
2023-08-17T10:50:08.222Z,27.64
2023-08-17T10:52:36.598Z,27.68
2023-08-17T10:55:08.961Z,28.02
2023-08-17T10:57:40.488Z,28.42
2023-08-17T11:00:33.027Z,28.81
2023-08-17T11:03:18.255Z,29.10
2023-08-17T11:05:48.005Z,28.54
2023-08-17T11:08:21.827Z,28.25
2023-08-17T11:11:01.380Z,28.30
2023-08-17T11:13:30.628Z,27.96
2023-08-17T11:16:03.454Z,27.87
2023-08-17T11:18:31.449Z,27.73
2023-08-17T11:20:58.263Z,27.29
2023-08-17T11:23:25.975Z,27.36
2023-08-17T11:25:56.190Z,27.26
2023-08-17T11:28:23.009Z,27.37
2023-08-17T11:31:03.138Z,27.65
2023-08-17T11:33:31.689Z,27.68
2023-08-17T11:38:36.662Z,27.67
2023-08-17T11:41:07.275Z,27.61
2023-08-17T11:43:34.392Z,27.58
2023-08-17T11:46:02.754Z,27.31
2023-08-17T11:51:03.026Z,27.33
2023-08-17T11:53:40.938Z,27.23
2023-08-17T11:56:10.649Z,27.00
2023-08-17T11:58:43.753Z,26.80
2023-08-17T12:01:34.350Z,27.04
2023-08-17T12:04:01.187Z,27.03
2023-08-17T12:06:28.076Z,27.17
2023-08-17T12:08:54.987Z,27.33
2023-08-17T12:11:25.180Z,27.35
2023-08-17T12:13:54.880Z,27.51
2023-08-17T12:16:21.949Z,27.60
2023-08-17T12:18:49.770Z,27.15
2023-08-17T12:21:16.663Z,27.13
2023-08-17T12:23:44.047Z,27.22
2023-08-17T12:26:11.029Z,27.27
2023-08-17T12:28:37.714Z,27.12
2023-08-17T12:31:04.624Z,27.42
2023-08-17T12:33:31.516Z,27.88
2023-08-17T12:35:58.540Z,28.29
2023-08-17T12:38:26.197Z,28.66
2023-08-17T12:40:53.406Z,29.09
2023-08-17T12:43:20.198Z,29.57
2023-08-17T12:45:47.351Z,29.65
2023-08-17T12:48:14.161Z,29.58
2023-08-17T12:50:44.232Z,29.50
2023-08-17T12:53:11.731Z,29.11
2023-08-17T12:55:38.592Z,29.06
2023-08-17T12:58:06.139Z,28.83
2023-08-17T13:00:32.997Z,28.98
2023-08-17T13:02:59.959Z,29.30
2023-08-17T13:05:26.779Z,29.46
2023-08-17T13:07:53.610Z,29.63
2023-08-17T13:10:20.450Z,29.95
2023-08-17T13:12:48.484Z,29.98
2023-08-17T13:15:15.330Z,30.07
2023-08-17T13:17:42.691Z,30.52
2023-08-17T13:20:10.852Z,30.62
2023-08-17T13:22:37.746Z,30.25
2023-08-17T13:25:04.914Z,30.08
2023-08-17T13:27:31.716Z,29.97
2023-08-17T13:29:59.945Z,29.82
2023-08-17T13:32:27.205Z,29.78
2023-08-17T13:34:54.818Z,29.87
2023-08-17T13:37:22.358Z,30.09
2023-08-17T13:39:49.087Z,30.05
2023-08-17T13:42:15.792Z,30.04
2023-08-17T13:44:42.408Z,30.11
2023-08-17T13:47:09.148Z,30.11
2023-08-17T13:49:35.927Z,30.03
2023-08-17T13:52:02.842Z,30.02
2023-08-17T13:54:29.520Z,29.97
2023-08-17T13:56:56.829Z,29.82
2023-08-17T13:59:23.435Z,29.39
2023-08-17T14:01:50.353Z,29.31
2023-08-17T14:04:18.859Z,28.96
2023-08-17T14:06:45.786Z,28.88
2023-08-17T14:09:12.702Z,28.60
2023-08-17T14:11:39.617Z,28.33
2023-08-17T14:14:08.441Z,28.09
2023-08-17T14:16:35.441Z,28.19
2023-08-17T14:19:02.142Z,28.26
2023-08-17T14:21:28.875Z,28.55
2023-08-17T14:23:55.546Z,28.97
2023-08-17T14:26:22.392Z,29.46
2023-08-17T14:28:50.352Z,30.08
2023-08-17T14:31:18.787Z,30.58
2023-08-17T14:33:49.215Z,30.61
2023-08-17T14:38:46.363Z,30.15
2023-08-17T14:41:13.428Z,30.53
2023-08-17T14:43:40.322Z,31.19
2023-08-17T14:46:07.459Z,31.04
2023-08-17T14:48:34.283Z,30.91
2023-08-17T14:51:01.119Z,30.49
2023-08-17T14:53:27.969Z,30.26
2023-08-17T14:55:54.842Z,30.30
2023-08-17T14:58:22.317Z,30.25
2023-08-17T15:00:48.996Z,30.45
2023-08-17T15:03:15.752Z,30.90
2023-08-17T15:05:42.564Z,31.20
2023-08-17T15:08:09.204Z,31.35
2023-08-17T15:10:35.989Z,31.63
2023-08-17T15:13:03.639Z,31.15
2023-08-17T15:15:30.695Z,31.18
2023-08-17T15:17:57.451Z,31.58
2023-08-17T15:20:24.359Z,32.07
2023-08-17T15:22:51.012Z,32.67
2023-08-17T15:25:17.875Z,33.19
2023-08-17T15:27:44.653Z,33.30
2023-08-17T15:30:30.410Z,32.82
2023-08-17T15:32:57.343Z,32.83
2023-08-17T15:35:24.024Z,33.46
2023-08-17T15:37:50.793Z,33.82
2023-08-17T15:40:17.535Z,32.96
2023-08-17T15:42:44.272Z,31.75
2023-08-17T15:45:11.097Z,30.70
2023-08-17T15:47:37.974Z,31.22
2023-08-17T15:50:04.945Z,33.40
2023-08-17T15:52:31.693Z,35.49
2023-08-17T15:54:58.368Z,36.48
2023-08-17T15:57:25.859Z,36.51
2023-08-17T15:59:53.480Z,36.65
2023-08-17T16:02:20.276Z,35.82
2023-08-17T16:04:47.486Z,35.81
2023-08-17T16:07:14.456Z,36.24
2023-08-17T16:09:41.841Z,35.76
2023-08-17T16:12:09.704Z,36.45
2023-08-17T16:14:36.501Z,36.52
2023-08-17T16:17:03.314Z,36.97
2023-08-17T16:19:30.053Z,37.04
2023-08-17T16:21:56.686Z,37.92
2023-08-17T16:26:53.149Z,39.22
2023-08-17T16:29:19.870Z,40.41
2023-08-17T16:32:00.761Z,40.49
2023-08-17T16:34:27.775Z,40.25
2023-08-17T16:36:54.479Z,40.58
2023-08-17T16:39:21.254Z,39.58
2023-08-17T16:41:49.793Z,38.97
2023-08-17T16:44:16.689Z,37.94
2023-08-17T16:46:43.358Z,39.45
2023-08-17T16:49:10.058Z,38.75
2023-08-17T16:51:36.755Z,39.48
2023-08-17T16:54:03.506Z,40.04
2023-08-17T16:56:30.163Z,39.72
2023-08-17T16:59:01.661Z,37.98
2023-08-17T17:01:28.847Z,37.19
2023-08-17T17:03:55.628Z,37.25
2023-08-17T17:06:22.377Z,36.59
2023-08-17T17:08:49.053Z,36.47
2023-08-17T17:11:15.804Z,36.35
2023-08-17T17:13:42.543Z,36.18
2023-08-17T17:16:09.375Z,35.66
2023-08-17T17:18:36.113Z,35.62
2023-08-17T17:21:02.933Z,34.49
2023-08-17T17:23:29.987Z,33.58
2023-08-17T17:25:56.681Z,32.38
2023-08-17T17:28:23.332Z,30.09
2023-08-17T17:30:50.233Z,28.74
2023-08-17T17:33:17.027Z,27.48
2023-08-17T17:35:43.792Z,26.55
2023-08-17T17:38:10.535Z,25.89
2023-08-17T17:40:37.316Z,25.33
2023-08-17T17:43:04.128Z,24.77
2023-08-17T17:45:30.820Z,24.43
2023-08-17T17:47:57.520Z,24.09
2023-08-17T17:50:24.350Z,23.86
2023-08-17T17:52:51.083Z,23.60
2023-08-17T17:55:17.893Z,23.24
2023-08-17T17:57:44.781Z,23.09
2023-08-17T18:00:12.081Z,23.00
2023-08-17T18:02:42.909Z,22.79
2023-08-17T18:05:11.329Z,22.57
2023-08-17T18:07:38.168Z,22.37
2023-08-17T18:10:05.442Z,22.21
2023-08-17T18:12:33.421Z,22.15
2023-08-17T18:15:00.202Z,22.14
2023-08-17T18:17:27.161Z,21.98
2023-08-17T18:19:54.255Z,21.88
2023-08-17T18:22:21.954Z,21.74
2023-08-17T18:24:48.611Z,21.67
2023-08-17T18:27:15.318Z,21.47
2023-08-17T18:29:41.916Z,21.38
2023-08-17T18:32:08.574Z,21.21
2023-08-17T18:34:35.293Z,21.07
2023-08-17T18:37:01.968Z,20.97
2023-08-17T18:39:28.637Z,20.93
2023-08-17T18:41:55.305Z,20.83
2023-08-17T18:44:23.308Z,20.80
2023-08-17T18:46:50.085Z,20.76
2023-08-17T18:49:16.795Z,20.75
2023-08-17T18:51:43.553Z,20.66
2023-08-17T18:54:10.189Z,20.58
2023-08-17T18:56:36.891Z,20.54
2023-08-17T18:59:03.901Z,20.53
2023-08-17T19:01:30.629Z,20.46
2023-08-17T19:03:57.595Z,20.45
2023-08-17T19:06:24.332Z,20.36
2023-08-17T19:08:50.981Z,20.29
2023-08-17T19:11:17.692Z,20.32
2023-08-17T19:13:44.348Z,20.25
2023-08-17T19:16:11.136Z,20.19
2023-08-17T19:18:37.911Z,20.22
2023-08-17T19:21:05.082Z,20.18
2023-08-17T19:23:31.768Z,20.15
2023-08-17T19:25:58.526Z,20.17
2023-08-17T19:28:25.224Z,20.13
2023-08-17T19:30:51.973Z,20.05
2023-08-17T19:33:18.717Z,20.02
2023-08-17T19:35:46.334Z,20.02
2023-08-17T19:38:13.166Z,19.99
2023-08-17T19:40:40.470Z,19.96
2023-08-17T19:43:07.974Z,19.89
2023-08-17T19:45:35.425Z,19.88
2023-08-17T19:48:02.224Z,19.87
2023-08-17T19:50:29.191Z,19.78
2023-08-17T19:52:55.900Z,19.74
2023-08-17T19:55:22.600Z,19.72
2023-08-17T19:57:49.280Z,19.70
2023-08-17T20:00:16.373Z,19.67
2023-08-17T20:02:47.249Z,19.61
2023-08-17T20:05:14.564Z,19.57
2023-08-17T20:07:41.199Z,19.54
2023-08-17T20:10:08.781Z,19.48
2023-08-17T20:12:35.509Z,19.48
2023-08-17T20:15:03.413Z,19.43
2023-08-17T20:17:30.383Z,19.36
2023-08-17T20:19:57.373Z,19.40
2023-08-17T20:22:25.149Z,19.36
2023-08-17T20:24:51.973Z,19.33
2023-08-17T20:27:18.745Z,19.23
2023-08-17T20:29:45.679Z,19.26
2023-08-17T20:32:12.419Z,19.24
2023-08-17T20:34:39.654Z,19.26
2023-08-17T20:37:06.468Z,19.19
2023-08-17T20:39:33.395Z,19.15
2023-08-17T20:42:08.026Z,19.12
2023-08-17T20:44:53.477Z,19.09
2023-08-17T20:47:20.228Z,18.97
2023-08-17T20:49:46.821Z,18.89
2023-08-17T20:52:15.497Z,18.78
2023-08-17T20:54:42.929Z,18.80
2023-08-17T20:57:09.710Z,18.73
2023-08-17T20:59:37.258Z,18.67
2023-08-17T21:02:04.290Z,18.61
2023-08-17T21:04:30.959Z,18.57
2023-08-17T21:06:57.628Z,18.55
2023-08-17T21:09:24.178Z,18.53
2023-08-17T21:11:51.401Z,18.54
2023-08-17T21:14:17.973Z,18.52
2023-08-17T21:16:44.562Z,18.45
2023-08-17T21:19:11.104Z,18.47
2023-08-17T21:21:37.771Z,18.50
2023-08-17T21:24:04.432Z,18.46
2023-08-17T21:26:31.109Z,18.33
2023-08-17T21:28:57.722Z,18.33
2023-08-17T21:31:24.490Z,18.33
2023-08-17T21:33:51.217Z,18.24
2023-08-17T21:36:17.940Z,18.17
2023-08-17T21:38:44.540Z,18.10
2023-08-17T21:41:11.292Z,18.09
2023-08-17T21:43:38.045Z,18.07
2023-08-17T21:46:04.848Z,18.08
2023-08-17T21:48:31.483Z,18.02
2023-08-17T21:50:58.512Z,18.02
2023-08-17T21:53:25.170Z,18.01
2023-08-17T21:55:52.538Z,17.97
2023-08-17T21:58:19.558Z,17.97
2023-08-17T22:00:47.435Z,17.87
2023-08-17T22:03:15.294Z,17.90
2023-08-17T22:05:46.008Z,17.83
2023-08-17T22:08:13.320Z,17.80
2023-08-17T22:10:40.029Z,17.75
2023-08-17T22:13:06.759Z,17.70
2023-08-17T22:15:33.481Z,17.65
2023-08-17T22:18:01.114Z,17.64
2023-08-17T22:20:27.963Z,17.67
2023-08-17T22:22:54.774Z,17.63
2023-08-17T22:25:21.474Z,17.62
2023-08-17T22:27:48.872Z,17.59
2023-08-17T22:30:15.547Z,17.50
2023-08-17T22:32:42.268Z,17.47
2023-08-17T22:35:11.448Z,17.39
2023-08-17T22:37:38.685Z,17.34
2023-08-17T22:40:07.233Z,17.34
2023-08-17T22:42:33.992Z,17.38
2023-08-17T22:45:00.665Z,17.36
2023-08-17T22:47:27.991Z,17.33
2023-08-17T22:49:55.753Z,17.26
2023-08-17T22:52:22.816Z,17.27
2023-08-17T22:54:49.875Z,17.31
2023-08-17T22:57:17.192Z,17.28
2023-08-17T22:59:43.991Z,17.27
2023-08-17T23:02:10.747Z,17.25
2023-08-17T23:04:37.599Z,17.20
2023-08-17T23:07:05.067Z,17.22
2023-08-17T23:09:31.899Z,17.25
2023-08-17T23:11:58.671Z,17.27
2023-08-17T23:14:25.354Z,17.23
2023-08-17T23:16:52.174Z,17.20
2023-08-17T23:19:18.933Z,17.15
2023-08-17T23:21:45.696Z,17.17
2023-08-17T23:24:12.394Z,17.14
2023-08-17T23:26:39.145Z,17.07
2023-08-17T23:29:06.083Z,17.10
2023-08-17T23:31:32.967Z,17.13
2023-08-17T23:33:59.701Z,17.14
2023-08-17T23:36:27.321Z,17.13
2023-08-17T23:38:54.012Z,17.15
2023-08-17T23:41:20.837Z,17.14
2023-08-17T23:43:47.495Z,17.06
2023-08-17T23:46:14.222Z,17.10
2023-08-17T23:48:40.915Z,17.05
2023-08-17T23:51:07.719Z,17.02
2023-08-17T23:53:34.613Z,16.96
2023-08-17T23:56:01.420Z,16.97
2023-08-17T23:58:28.082Z,16.93
